Time;durP1;ratioP1;P1;durP2;ratioP2;P2;SDS_P1;SDS_P2;PMS_P1;PMS_P2;Temp;Humidity;BMP_temperature;BMP_pressure;BME280_temperature;BME280_humidity;BME280_pressure;Samples;Min_cycle;Max_cycle;Signal;HPM_P1;HPM_P2
2023/05/02 00:00:12;;;;;;;44.65;22.58;;;9.90;99.90;;;8.84;100.00;97433.19;4935298;29;20408;-73
2023/05/02 00:02:38;;;;;;;46.17;23.58;;;9.80;99.90;;;8.84;100.00;97427.91;4935078;29;20407;-73
2023/05/02 00:05:05;;;;;;;42.42;21.27;;;9.80;99.90;;;8.83;100.00;97428.94;4935269;29;20953;-73
2023/05/02 00:07:31;;;;;;;48.33;23.08;;;9.80;99.90;;;8.79;100.00;97432.31;4934778;29;20502;-73
2023/05/02 00:09:57;;;;;;;50.22;24.13;;;9.80;99.90;;;8.82;100.00;97423.88;4934894;29;20424;-73
2023/05/02 00:12:25;;;;;;;42.80;22.38;;;9.80;99.90;;;8.72;100.00;97426.38;4934862;29;20434;-73
2023/05/02 00:14:51;;;;;;;51.17;25.25;;;9.80;99.90;;;8.71;100.00;97425.56;4934825;29;20416;-73
2023/05/02 00:17:17;;;;;;;40.65;23.48;;;9.70;99.90;;;8.69;100.00;97429.47;4934649;29;20923;-73
2023/05/02 00:19:43;;;;;;;48.50;24.77;;;9.70;99.90;;;8.69;100.00;97427.63;4934824;29;20818;-73
2023/05/02 00:22:09;;;;;;;43.10;22.98;;;9.60;99.90;;;8.59;100.00;97427.44;4935735;29;20416;-73
2023/05/02 00:24:35;;;;;;;45.95;23.05;;;9.60;99.90;;;8.56;100.00;97427.13;4936163;29;20411;-73
2023/05/02 00:27:01;;;;;;;48.72;25.80;;;9.60;99.90;;;8.59;100.00;97422.19;4923936;29;20473;-73
2023/05/02 00:29:28;;;;;;;44.15;24.67;;;9.60;99.90;;;8.48;100.00;97420.41;4916709;29;20410;-73
2023/05/02 00:31:54;;;;;;;48.17;24.88;;;9.50;99.90;;;8.48;100.00;97420.41;4915376;29;20439;-73
2023/05/02 00:34:20;;;;;;;51.00;25.63;;;9.50;99.90;;;8.39;100.00;97424.47;4914353;29;20417;-73
2023/05/02 00:36:47;;;;;;;44.67;23.80;;;9.40;99.90;;;8.34;100.00;97419.91;4915358;29;20448;-73
2023/05/02 00:39:13;;;;;;;41.63;23.95;;;9.40;99.90;;;8.36;100.00;97423.06;4915520;29;20935;-73
2023/05/02 00:41:39;;;;;;;52.85;26.27;;;9.40;99.90;;;8.40;100.00;97426.06;4915206;29;20539;-73
2023/05/02 00:44:05;;;;;;;51.00;26.83;;;9.40;99.90;;;8.39;100.00;97417.34;4961387;23;20448;-76
2023/05/02 00:46:32;;;;;;;54.90;27.10;;;9.40;99.90;;;8.35;100.00;97428.59;4945073;28;20480;-76
2023/05/02 00:48:59;;;;;;;55.38;27.90;;;9.30;99.90;;;8.35;100.00;97418.03;4953214;28;20880;-76
2023/05/02 00:51:26;;;;;;;57.13;27.30;;;9.30;99.90;;;8.35;100.00;97421.47;4953075;28;20425;-76
2023/05/02 00:53:52;;;;;;;58.60;28.35;;;9.40;99.90;;;8.37;100.00;97427.31;4953276;28;20398;-76
2023/05/02 00:56:18;;;;;;;64.30;31.15;;;9.40;99.90;;;8.41;100.00;97422.38;4953039;28;20438;-76
2023/05/02 00:58:46;;;;;;;66.65;29.85;;;9.40;99.90;;;8.45;100.00;97426.94;4953170;28;20972;-76
2023/05/02 01:01:28;;;;;;;65.68;30.45;;;9.40;99.90;;;8.52;100.00;97418.88;4952653;28;20888;-76
2023/05/02 01:04:08;;;;;;;67.28;32.42;;;9.50;99.90;;;8.61;100.00;97428.03;4952704;28;20410;-76
2023/05/02 01:06:58;;;;;;;59.87;31.23;;;9.50;99.90;;;8.63;100.00;97425.16;4952813;28;20667;-76
2023/05/02 01:09:36;;;;;;;54.03;28.93;;;9.50;99.90;;;8.82;100.00;97429.97;4952987;28;20772;-76
2023/05/02 01:12:15;;;;;;;62.75;31.55;;;9.60;99.90;;;8.82;100.00;97429.97;4952887;28;20425;-76
2023/05/02 01:14:45;;;;;;;59.10;28.92;;;9.70;99.90;;;8.87;100.00;97431.91;4952961;28;20409;-76
2023/05/02 01:17:14;;;;;;;57.50;28.08;;;9.80;99.90;;;8.84;100.00;97438.47;4952678;28;20517;-76
2023/05/02 01:19:51;;;;;;;55.95;28.23;;;9.80;99.90;;;8.83;100.00;97436.84;4952739;28;20946;-76
2023/05/02 01:22:19;;;;;;;50.63;26.33;;;9.70;99.90;;;8.82;100.00;97445.81;4952858;28;20424;-75
2023/05/02 01:24:58;;;;;;;53.13;27.33;;;9.80;99.90;;;8.79;100.00;97435.75;4952758;29;20910;-76
2023/05/02 01:27:38;;;;;;;53.17;26.20;;;9.70;99.90;;;8.78;100.00;97435.97;4952673;28;20453;-76
2023/05/02 01:30:09;;;;;;;54.63;27.15;;;9.70;99.90;;;8.78;100.00;97430.69;4952548;28;20460;-76
2023/05/02 01:32:38;;;;;;;53.88;26.98;;;9.70;99.90;;;8.76;100.00;97440.69;4951351;28;20426;-76
2023/05/02 01:35:06;;;;;;;53.20;27.05;;;9.70;99.90;;;8.75;100.00;97436.44;4952581;28;20405;-76
2023/05/02 01:37:35;;;;;;;50.88;25.40;;;9.70;99.90;;;8.72;100.00;97432.44;4951230;28;20410;-76
2023/05/02 01:40:04;;;;;;;52.63;26.33;;;9.70;99.90;;;8.69;100.00;97432.91;4952532;28;20406;-76
2023/05/02 01:42:34;;;;;;;53.55;26.23;;;9.60;99.90;;;8.68;100.00;97433.16;4952453;28;20405;-76
2023/05/02 01:45:04;;;;;;;50.22;25.13;;;9.60;99.90;;;8.68;100.00;97428.66;4952536;28;20410;-76
2023/05/02 01:47:34;;;;;;;50.87;26.07;;;9.60;99.90;;;8.65;100.00;97434.41;4952365;28;20414;-76
2023/05/02 01:50:02;;;;;;;50.65;27.35;;;9.60;99.90;;;8.66;100.00;97437.84;4952413;28;20410;-76
2023/05/02 01:52:29;;;;;;;52.75;24.35;;;9.60;99.90;;;8.63;100.00;97446.25;4952414;28;20432;-76
2023/05/02 01:54:58;;;;;;;52.90;26.27;;;9.60;99.90;;;8.62;100.00;97445.47;4944833;28;20410;-76
2023/05/02 01:57:24;;;;;;;49.38;25.15;;;9.60;99.90;;;8.57;100.00;97447.97;4944143;28;20412;-76
2023/05/02 01:59:53;;;;;;;50.53;25.35;;;9.50;99.90;;;8.53;100.00;97439.75;4952076;28;20476;-76
2023/05/02 02:02:21;;;;;;;52.38;25.92;;;9.50;99.90;;;8.54;100.00;97444.00;4952424;28;20408;-76
2023/05/02 02:04:50;;;;;;;53.63;25.67;;;9.50;99.90;;;8.54;100.00;97444.00;4952387;28;20457;-76
2023/05/02 02:07:16;;;;;;;42.45;22.92;;;9.50;99.90;;;8.52;100.00;97443.44;4946528;29;20977;-76
2023/05/02 02:09:42;;;;;;;44.63;21.97;;;9.50;99.90;;;8.48;100.00;97447.59;4952345;28;20504;-76
2023/05/02 02:12:14;;;;;;;54.67;26.38;;;9.50;99.90;;;8.49;100.00;97443.13;4952186;28;20749;-76
2023/05/02 02:14:45;;;;;;;45.00;23.67;;;9.40;99.90;;;8.45;100.00;97449.88;4955349;28;20774;-76
2023/05/02 02:17:21;;;;;;;44.15;22.58;;;9.40;99.90;;;8.46;100.00;97454.94;4956049;28;20758;-76
2023/05/02 02:19:52;;;;;;;41.60;22.88;;;9.40;99.90;;;8.41;100.00;97460.13;4956013;28;20569;-75
2023/05/02 02:22:20;;;;;;;46.20;22.63;;;9.40;99.90;;;8.35;100.00;97465.50;4954883;29;20445;-76
2023/05/02 02:24:48;;;;;;;44.72;23.30;;;9.30;99.90;;;8.27;100.00;97463.22;4956062;28;20772;-76
2023/05/02 02:27:13;;;;;;;43.80;22.83;;;9.20;99.90;;;8.24;100.00;97471.59;4954634;29;20406;-76
2023/05/02 02:29:40;;;;;;;42.20;23.35;;;9.20;99.90;;;8.21;100.00;97462.31;4955937;28;21015;-76
2023/05/02 02:32:05;;;;;;;45.50;23.27;;;9.20;99.90;;;8.16;100.00;97476.22;4955784;28;20422;-76
2023/05/02 02:34:31;;;;;;;45.45;24.75;;;9.20;99.90;;;8.15;100.00;97469.31;4955873;28;20472;-76
2023/05/02 02:37:04;;;;;;;46.80;23.75;;;9.10;99.90;;;8.14;100.00;97469.56;4955671;28;20441;-76
2023/05/02 02:39:46;;;;;;;43.75;22.55;;;9.10;99.90;;;8.11;100.00;97472.69;4956094;28;20760;-76
2023/05/02 02:42:21;;;;;;;44.95;23.55;;;9.10;99.90;;;8.10;100.00;97482.41;4955643;28;20437;-76
2023/05/02 02:45:00;;;;;;;39.95;22.33;;;9.10;99.90;;;8.04;100.00;97478.03;4955666;28;20414;-75
2023/05/02 02:47:32;;;;;;;49.70;24.27;;;9.00;99.90;;;8.07;100.00;97479.44;4955580;28;20416;-76
2023/05/02 02:50:13;;;;;;;47.33;24.48;;;9.00;99.90;;;8.07;100.00;97484.69;4954435;29;20426;-75
2023/05/02 02:52:52;;;;;;;45.88;24.80;;;9.10;99.90;;;8.11;100.00;97491.94;4955639;28;20429;-76
2023/05/02 02:55:33;;;;;;;46.38;23.85;;;9.10;99.90;;;8.14;100.00;97488.00;4955359;28;20501;-75
2023/05/02 02:58:10;;;;;;;44.30;23.52;;;9.10;99.90;;;8.14;100.00;97488.81;4955534;28;20405;-75
2023/05/02 03:00:37;;;;;;;35.58;19.50;;;9.10;99.90;;;8.18;100.00;97510.25;4955296;28;20768;-75
2023/05/02 03:03:05;;;;;;;33.10;19.23;;;9.20;99.90;;;8.22;100.00;97503.47;4955268;28;20398;-76
2023/05/02 03:05:32;;;;;;;45.13;23.30;;;9.20;99.90;;;8.29;100.00;97509.41;4955197;28;20472;-75
2023/05/02 03:08:00;;;;;;;40.03;21.95;;;9.30;99.90;;;8.36;100.00;97517.22;4955368;28;20731;-75
2023/05/02 03:10:26;;;;;;;47.47;22.33;;;9.30;99.90;;;8.43;100.00;97528.44;4955138;28;20480;-75
2023/05/02 03:12:54;;;;;;;43.53;22.05;;;9.40;99.90;;;8.52;100.00;97524.41;4955037;28;20502;-75
2023/05/02 03:15:52;;;;;;;40.13;22.63;;;9.50;99.90;;;8.60;100.00;97529.31;4955068;28;20414;-75
2023/05/02 03:18:18;;;;;;;48.30;24.17;;;9.60;99.90;;;8.65;100.00;97526.78;4955230;28;20421;-75
2023/05/02 03:20:44;;;;;;;40.80;20.95;;;9.60;99.90;;;8.79;100.00;97530.75;4955221;28;20402;-75
2023/05/02 03:23:12;;;;;;;47.53;23.90;;;9.70;99.90;;;8.95;100.00;97529.16;4953697;29;20453;-76
2023/05/02 03:25:38;;;;;;;43.72;22.50;;;9.80;99.90;;;8.97;100.00;97532.38;4953694;28;20964;-75
2023/05/02 03:28:04;;;;;;;37.42;19.75;;;9.90;99.90;;;9.01;100.00;97540.66;4954848;28;20414;-76
2023/05/02 03:30:30;;;;;;;40.65;21.10;;;9.90;99.90;;;9.04;100.00;97543.59;4954766;28;20761;-75
2023/05/02 03:32:56;;;;;;;46.20;22.65;;;10.00;99.90;;;9.07;100.00;97540.50;4953417;29;20430;-75
2023/05/02 03:35:22;;;;;;;42.25;21.30;;;10.00;99.90;;;9.09;100.00;97545.53;4954769;28;20401;-75
2023/05/02 03:37:48;;;;;;;46.47;23.75;;;10.00;99.90;;;9.13;100.00;97550.09;4953257;29;20476;-75
2023/05/02 03:40:15;;;;;;;40.88;21.48;;;10.00;99.90;;;9.13;100.00;97551.94;4954535;29;20405;-75
2023/05/02 03:42:41;;;;;;;46.25;23.17;;;10.00;99.90;;;9.12;100.00;97552.97;4954484;28;20493;-75
2023/05/02 03:45:09;;;;;;;38.77;21.27;;;10.00;99.90;;;9.16;100.00;97557.56;4954564;28;20414;-75
2023/05/02 03:47:35;;;;;;;34.88;20.10;;;10.00;99.90;;;9.20;100.00;97563.16;4954386;28;20425;-75
2023/05/02 03:50:02;;;;;;;45.42;23.45;;;10.10;99.90;;;9.20;100.00;97566.59;4954456;28;20429;-75
2023/05/02 03:52:28;;;;;;;36.92;20.77;;;10.10;99.90;;;9.22;100.00;97569.00;4954380;28;20421;-76
2023/05/02 03:54:54;;;;;;;40.97;21.57;;;10.10;99.90;;;9.23;100.00;97566.13;4954600;28;20927;-75
2023/05/02 03:57:21;;;;;;;33.85;19.15;;;10.10;99.90;;;9.29;100.00;97581.03;4953177;29;20418;-75
2023/05/02 03:59:47;;;;;;;38.92;20.95;;;10.20;99.90;;;9.31;100.00;97578.16;4954399;28;20901;-75
2023/05/02 04:02:13;;;;;;;45.13;23.10;;;10.20;99.90;;;9.32;100.00;97582.41;4954506;28;20406;-75
2023/05/02 04:04:39;;;;;;;40.40;21.35;;;10.20;99.90;;;9.33;100.00;97581.34;4954196;28;20754;-75
2023/05/02 04:07:06;;;;;;;38.00;21.05;;;10.20;99.90;;;9.34;100.00;97585.59;4953964;28;20410;-75
2023/05/02 04:09:32;;;;;;;38.63;22.10;;;10.20;99.90;;;9.44;100.00;97585.78;4954178;28;20453;-75
2023/05/02 04:11:58;;;;;;;41.92;22.25;;;10.30;99.90;;;9.38;100.00;97586.72;4953961;28;20511;-75
2023/05/02 04:14:26;;;;;;;39.00;21.23;;;10.30;99.90;;;9.41;100.00;97593.38;4954104;28;20835;-75
2023/05/02 04:16:52;;;;;;;38.95;21.92;;;10.30;99.90;;;9.41;100.00;97586.25;4951050;28;20536;-75
2023/05/02 04:19:18;;;;;;;38.67;21.70;;;10.30;99.90;;;9.44;100.00;97590.25;4942089;28;20495;-75
2023/05/02 04:21:45;;;;;;;38.47;21.10;;;10.30;99.90;;;9.39;100.00;97593.63;4945340;28;20418;-75
2023/05/02 04:24:12;;;;;;;42.83;23.60;;;10.30;99.90;;;9.43;100.00;97592.09;4939481;28;20427;-75
2023/05/02 04:26:38;;;;;;;42.75;21.65;;;10.30;99.90;;;9.43;100.00;97596.56;4943040;29;21120;-75
2023/05/02 04:29:04;;;;;;;39.78;19.98;;;10.30;99.90;;;9.44;100.00;97600.81;4942324;29;20447;-76
2023/05/02 04:31:32;;;;;;;40.47;22.13;;;10.30;99.90;;;9.45;100.00;97597.94;4941487;28;21047;-74
2023/05/02 04:33:58;;;;;;;42.25;21.40;;;10.30;99.90;;;9.45;100.00;97602.44;4945420;29;20416;-75
2023/05/02 04:36:27;;;;;;;37.72;19.52;;;10.30;99.90;;;9.47;100.00;97595.84;4944193;29;20416;-75
2023/05/02 04:38:52;;;;;;;44.53;23.15;;;10.30;99.90;;;9.47;100.00;97609.06;4943568;28;20407;-75
2023/05/02 04:41:20;;;;;;;45.40;23.25;;;10.30;99.90;;;9.43;100.00;97602.66;4959706;28;20501;-75
2023/05/02 04:43:46;;;;;;;39.65;21.75;;;10.30;99.90;;;9.44;100.00;97606.91;4944353;28;20477;-75
2023/05/02 04:46:11;;;;;;;40.70;21.23;;;10.30;99.90;;;9.45;100.00;97613.00;4944863;28;20490;-75
2023/05/02 04:48:40;;;;;;;47.88;23.88;;;10.30;99.90;;;9.43;100.00;97610.59;4941664;28;20422;-75
2023/05/02 04:51:07;;;;;;;46.20;23.02;;;10.40;99.90;;;9.43;100.00;97609.78;4942763;28;20491;-75
2023/05/02 04:53:33;;;;;;;40.30;20.90;;;10.30;99.90;;;9.43;100.00;97610.59;4944413;28;20919;-76
2023/05/02 04:55:59;;;;;;;49.42;24.58;;;10.30;99.90;;;9.41;100.00;97607.38;4945061;28;20431;-75
2023/05/02 04:58:25;;;;;;;43.95;23.42;;;10.30;99.90;;;9.39;100.00;97614.75;4944974;28;20931;-75
2023/05/02 05:00:51;;;;;;;46.45;24.85;;;10.30;99.90;;;9.39;100.00;97609.47;4942072;28;20514;-75
2023/05/02 05:03:16;;;;;;;44.90;23.10;;;10.30;99.90;;;9.36;100.00;97612.56;4947793;29;20406;-75
2023/05/02 05:05:44;;;;;;;48.57;24.93;;;10.20;99.90;;;9.31;100.00;97613.31;4951906;28;20888;-75
2023/05/02 05:08:10;;;;;;;35.20;21.48;;;10.20;99.90;;;9.34;100.00;97625.22;4952787;29;20484;-75
2023/05/02 05:10:36;;;;;;;43.55;22.65;;;10.20;99.90;;;9.39;100.00;97625.31;4949379;29;20410;-75
2023/05/02 05:13:03;;;;;;;41.47;21.70;;;10.20;99.90;;;9.50;100.00;97626.28;4943294;28;21826;-75
2023/05/02 05:15:29;;;;;;;44.40;22.40;;;10.40;99.90;;;9.54;100.00;97635.38;4952156;29;20418;-75
2023/05/02 05:17:54;;;;;;;36.78;20.92;;;10.40;99.90;;;9.62;100.00;97641.03;4946662;28;20823;-75
2023/05/02 05:20:21;;;;;;;37.77;20.07;;;10.50;99.90;;;9.71;100.00;97652.81;4953149;28;20502;-76
2023/05/02 05:22:48;;;;;;;34.03;19.63;;;10.60;99.90;;;9.77;100.00;97655.56;4953418;28;20888;-73
2023/05/02 05:25:14;;;;;;;39.43;22.83;;;10.60;99.90;;;9.66;100.00;97652.75;4953086;28;20502;-73
2023/05/02 05:27:40;;;;;;;35.00;19.27;;;10.50;99.90;;;9.81;100.00;97665.44;4952985;28;20439;-73
2023/05/02 05:30:10;;;;;;;30.70;19.60;;;10.70;99.90;;;9.89;100.00;97666.88;4953051;28;21090;-73
2023/05/02 05:32:35;;;;;;;36.83;20.35;;;10.70;99.90;;;9.99;100.00;97670.50;4952972;28;20480;-73
2023/05/02 05:35:03;;;;;;;38.55;21.95;;;10.80;99.90;;;10.07;100.00;97675.34;4953226;28;20405;-74
2023/05/02 05:37:29;;;;;;;37.28;22.75;;;10.90;99.90;;;10.12;100.00;97676.50;4952880;28;20414;-75
2023/05/02 05:39:56;;;;;;;41.90;24.00;;;11.00;99.90;;;10.15;100.00;97673.38;4952871;28;20840;-75
2023/05/02 05:42:22;;;;;;;45.70;24.98;;;11.00;99.90;;;10.20;100.00;97684.88;4952888;28;20410;-75
2023/05/02 05:44:48;;;;;;;37.97;23.70;;;11.00;99.90;;;10.07;100.00;97690.47;4953042;28;20412;-75
2023/05/02 05:47:19;;;;;;;39.55;22.42;;;10.90;99.90;;;10.15;100.00;97686.63;4942993;28;20482;-75
2023/05/02 05:49:45;;;;;;;43.40;25.50;;;11.00;99.90;;;10.14;100.00;97690.28;4965848;28;20505;-75
2023/05/02 05:52:10;;;;;;;35.85;22.13;;;11.00;99.90;;;10.20;100.00;97690.16;4952324;28;20917;-75
2023/05/02 05:54:36;;;;;;;46.00;26.40;;;11.00;99.90;;;10.33;100.00;97696.97;4952464;28;20897;-75
2023/05/02 05:57:04;;;;;;;41.97;23.95;;;11.10;99.90;;;10.32;100.00;97700.66;4952338;28;20449;-75
2023/05/02 05:59:30;;;;;;;44.78;26.45;;;11.10;99.90;;;10.21;100.00;97707.66;4952329;28;20406;-75
2023/05/02 06:01:56;;;;;;;44.05;26.15;;;11.00;99.90;;;10.36;100.00;97702.59;4940947;28;21127;-74
2023/05/02 06:04:22;;;;;;;48.00;27.35;;;11.20;99.90;;;10.34;100.00;97712.59;4949681;28;20897;-74
2023/05/02 06:06:50;;;;;;;42.47;25.00;;;11.20;99.90;;;10.39;100.00;97707.38;4944068;28;20774;-74
2023/05/02 06:09:16;;;;;;;46.80;25.60;;;11.20;99.90;;;10.47;100.00;97717.56;4934017;29;20466;-75
2023/05/02 06:11:41;;;;;;;41.87;24.40;;;11.30;99.90;;;10.59;100.00;97711.38;4944941;28;20446;-76
2023/05/02 06:14:09;;;;;;;48.78;26.60;;;11.40;99.90;;;10.56;100.00;97717.97;4940179;28;20992;-74
2023/05/02 06:16:35;;;;;;;46.88;25.38;;;11.40;99.90;;;10.63;100.00;97723.09;4945178;29;20758;-74
2023/05/02 06:19:01;;;;;;;61.23;31.77;;;11.40;99.90;;;10.60;100.00;97721.72;4944154;28;20508;-75
2023/05/02 06:21:27;;;;;;;48.90;27.17;;;11.40;99.90;;;10.60;100.00;97720.94;4946391;28;20493;-75
2023/05/02 06:23:53;;;;;;;43.13;24.45;;;11.40;99.90;;;10.65;100.00;97732.41;4939877;29;20451;-75
2023/05/02 06:26:20;;;;;;;49.80;26.07;;;11.40;99.90;;;10.64;100.00;97735.28;4942678;28;20418;-75
2023/05/02 06:28:46;;;;;;;51.35;29.77;;;11.40;99.90;;;10.69;100.00;97732.69;4946193;29;20502;-74
2023/05/02 06:31:15;;;;;;;47.63;26.20;;;11.50;99.90;;;10.73;100.00;97726.69;4946799;28;20501;-74
2023/05/02 06:33:41;;;;;;;50.45;30.15;;;11.50;99.90;;;10.60;100.00;97740.25;4951863;28;20466;-74
2023/05/02 06:36:07;;;;;;;43.75;25.17;;;11.50;99.90;;;10.76;100.00;97743.91;4951979;28;20425;-74
2023/05/02 06:38:33;;;;;;;46.03;28.30;;;11.60;99.90;;;10.74;100.00;97752.13;4951636;28;20441;-74
2023/05/02 06:40:59;;;;;;;50.30;28.00;;;11.50;99.90;;;10.83;100.00;97748.00;4951638;28;20508;-74
2023/05/02 06:43:25;;;;;;;51.30;28.02;;;11.60;99.90;;;10.94;100.00;97750.81;4993882;23;20894;-72
2023/05/02 06:45:53;;;;;;;47.27;27.33;;;11.70;99.90;;;11.02;100.00;97751.19;4932601;29;20470;-72
2023/05/02 06:48:20;;;;;;;56.88;30.40;;;11.80;99.90;;;11.11;100.00;97748.91;4932843;29;20408;-72
2023/05/02 06:50:46;;;;;;;51.30;30.57;;;11.90;99.90;;;11.02;100.00;97772.38;4928373;29;20527;-72
2023/05/02 06:53:12;;;;;;;49.88;30.48;;;11.80;99.90;;;11.02;100.00;97759.13;4928918;29;20424;-72
2023/05/02 06:55:38;;;;;;;51.88;31.52;;;11.80;99.90;;;11.02;100.00;97759.13;4930348;29;20906;-72
2023/05/02 06:58:04;;;;;;;55.75;33.97;;;11.80;99.90;;;11.10;100.00;97760.56;4922386;29;20469;-72
2023/05/02 07:00:30;;;;;;;51.20;31.27;;;11.90;99.90;;;11.09;100.00;97765.06;4925205;29;20906;-73
2023/05/02 07:02:56;;;;;;;56.95;32.97;;;11.90;99.90;;;11.17;100.00;97766.47;4925794;29;20415;-73
2023/05/02 07:05:24;;;;;;;56.97;35.20;;;12.00;99.90;;;11.19;100.00;97767.84;4932654;29;20510;-73
2023/05/02 07:07:49;;;;;;;48.95;32.13;;;12.00;99.90;;;11.07;100.00;97782.22;4920662;29;20498;-73
2023/05/02 07:10:15;;;;;;;56.10;34.90;;;11.90;99.90;;;11.09;100.00;97780.16;4933359;29;20503;-73
2023/05/02 07:12:41;;;;;;;52.45;32.47;;;11.90;99.90;;;11.21;100.00;97789.59;4924971;29;20915;-73
2023/05/02 07:15:08;;;;;;;57.55;34.75;;;12.00;99.90;;;11.23;100.00;97792.78;4929778;29;20419;-73
2023/05/02 07:17:34;;;;;;;50.25;33.40;;;12.10;99.90;;;11.24;100.00;97780.34;4919818;29;20448;-74
2023/05/02 07:20:00;;;;;;;47.90;31.55;;;12.00;99.90;;;11.32;100.00;97784.44;4930436;29;20413;-74
2023/05/02 07:22:27;;;;;;;55.70;35.75;;;12.10;99.90;;;11.34;100.00;97792.94;4918830;29;20463;-73
2023/05/02 07:24:57;;;;;;;48.90;33.45;;;12.10;99.90;;;11.33;100.00;97799.28;4932831;29;20548;-72
2023/05/02 07:27:24;;;;;;;48.70;31.02;;;12.10;99.90;;;11.38;100.00;97802.78;4932082;29;20945;-73
2023/05/02 07:29:50;;;;;;;49.75;31.30;;;12.20;99.90;;;11.61;100.00;97793.81;4930596;29;20412;-73
2023/05/02 07:32:16;;;;;;;48.80;31.95;;;12.30;99.90;;;11.56;100.00;97802.50;4926603;29;20429;-73
2023/05/02 07:34:42;;;;;;;48.38;33.53;;;12.30;99.90;;;11.63;100.00;97802.31;4927008;29;20933;-73
2023/05/02 07:37:08;;;;;;;53.55;36.42;;;12.30;99.90;;;11.57;100.00;97800.66;4933055;29;20615;-73
2023/05/02 07:39:36;;;;;;;47.47;34.15;;;12.30;99.90;;;11.44;100.00;97796.50;4935404;29;20510;-73
2023/05/02 07:42:02;;;;;;;56.47;35.97;;;12.20;99.90;;;11.60;100.00;97800.16;4935360;29;20420;-73
2023/05/02 07:44:28;;;;;;;49.47;34.35;;;12.40;99.90;;;11.79;100.00;97795.38;4935265;29;20439;-74
2023/05/02 07:46:54;;;;;;;49.58;34.03;;;12.50;99.90;;;11.80;100.00;97803.06;4935227;29;20818;-73
2023/05/02 07:49:20;;;;;;;45.97;32.65;;;12.50;99.90;;;12.00;100.00;97800.66;4935366;29;20415;-73
2023/05/02 07:51:46;;;;;;;48.30;34.50;;;12.70;99.90;;;12.07;100.00;97803.09;4935117;29;20416;-73
2023/05/02 07:54:15;;;;;;;42.57;31.83;;;12.80;99.90;;;12.16;100.00;97806.09;4935144;29;20996;-73
2023/05/02 07:56:43;;;;;;;50.70;35.23;;;12.90;99.90;;;12.16;100.00;97806.09;4932993;29;20486;-73
2023/05/02 07:59:10;;;;;;;51.13;37.50;;;12.90;99.90;;;12.14;100.00;97809.00;4927892;29;20412;-72
2023/05/02 08:01:36;;;;;;;50.43;35.80;;;13.00;99.90;;;12.00;100.00;97816.56;4935497;29;20924;-73
2023/05/02 08:04:03;;;;;;;46.10;34.20;;;12.80;99.90;;;11.91;100.00;97827.84;4935525;29;20502;-73
2023/05/02 08:06:29;;;;;;;46.58;34.83;;;12.70;99.90;;;11.98;100.00;97823.16;4935376;29;20407;-72
2023/05/02 08:08:55;;;;;;;52.03;37.35;;;12.80;99.90;;;12.06;100.00;97827.22;4935451;29;21180;-72
2023/05/02 08:11:24;;;;;;;56.42;40.63;;;12.80;99.90;;;12.25;100.00;97834.59;4934076;29;20466;-72
2023/05/02 08:13:51;;;;;;;51.30;37.33;;;12.90;99.90;;;12.33;100.00;97834.13;4930790;29;20560;-72
2023/05/02 08:16:18;;;;;;;67.15;45.08;;;13.10;99.90;;;12.56;100.00;97840.19;4930767;29;20900;-72
2023/05/02 08:18:44;;;;;;;54.92;38.83;;;13.30;99.90;;;12.44;100.00;97837.69;4934541;29;20514;-72
2023/05/02 08:21:10;;;;;;;50.15;36.78;;;13.30;99.90;;;12.58;100.00;97838.09;4934508;29;20408;-72
2023/05/02 08:23:39;;;;;;;49.53;36.75;;;13.30;99.90;;;12.67;100.00;97845.34;4934683;29;20412;-72
2023/05/02 08:26:05;;;;;;;46.25;34.00;;;13.40;99.90;;;12.36;100.00;97838.94;4934684;29;20772;-72
2023/05/02 08:28:30;;;;;;;51.13;36.63;;;13.20;99.90;;;12.56;100.00;97842.84;4934715;29;20416;-72
2023/05/02 08:30:58;;;;;;;52.70;36.10;;;13.30;99.90;;;12.71;100.00;97838.47;4928999;29;20408;-72
2023/05/02 08:33:25;;;;;;;58.88;38.63;;;13.50;99.90;;;12.63;100.00;97844.22;4929043;29;20440;-72
2023/05/02 08:35:51;;;;;;;48.25;35.22;;;13.50;99.90;;;12.87;100.00;97839.38;4934007;29;20490;-72
2023/05/02 08:38:18;;;;;;;52.75;38.35;;;13.60;99.90;;;12.92;100.00;97847.41;4934236;29;20411;-72
2023/05/02 08:40:47;;;;;;;58.20;41.13;;;13.70;99.90;;;13.17;100.00;97850.25;4931375;29;20448;-72
2023/05/02 08:43:16;;;;;;;52.22;37.83;;;13.80;99.90;;;12.95;100.00;97846.06;4933642;29;20491;-72
2023/05/02 08:45:44;;;;;;;44.63;33.63;;;13.70;99.90;;;13.06;100.00;97847.78;4933700;29;20412;-72
2023/05/02 08:48:13;;;;;;;44.25;33.35;;;13.70;99.90;;;13.28;100.00;97847.69;4934095;29;20419;-72
2023/05/02 08:50:43;;;;;;;50.08;35.60;;;14.00;99.90;;;13.42;100.00;97844.31;4933544;29;20482;-72
2023/05/02 08:53:11;;;;;;;40.67;30.33;;;14.10;99.90;;;13.57;100.00;97848.91;4930406;29;20496;-72
2023/05/02 08:55:39;;;;;;;49.50;33.40;;;14.20;99.90;;;13.83;100.00;97853.25;4934037;29;20421;-72
2023/05/02 08:58:06;;;;;;;45.95;32.92;;;14.60;99.90;;;13.74;100.00;97849.53;4931574;29;20403;-72
2023/05/02 09:00:36;;;;;;;40.72;28.33;;;14.40;99.90;;;13.92;100.00;97853.56;4933760;29;20403;-72
2023/05/02 09:03:13;;;;;;;40.50;30.10;;;14.60;99.90;;;14.03;100.00;97862.41;4930891;29;20547;-72
2023/05/02 09:05:41;;;;;;;42.80;31.08;;;14.70;99.90;;;14.11;100.00;97851.25;4934686;29;20414;-72
2023/05/02 09:08:11;;;;;;;41.33;29.77;;;14.80;99.90;;;14.34;100.00;97859.56;4934398;29;20470;-72
2023/05/02 09:10:41;;;;;;;41.78;30.35;;;14.90;99.90;;;14.37;100.00;97862.75;4933900;29;20416;-72
2023/05/02 09:13:32;;;;;;;46.03;33.67;;;15.00;99.90;;;14.16;100.00;97867.22;4923734;29;20433;-72
2023/05/02 09:16:01;;;;;;;42.03;31.25;;;14.90;99.90;;;13.78;100.00;97868.41;4932990;29;20407;-72
2023/05/02 09:18:34;;;;;;;45.30;34.28;;;14.50;99.90;;;13.86;100.00;97866.06;4931774;29;20411;-72
2023/05/02 09:21:05;;;;;;;45.03;33.08;;;14.60;99.90;;;13.94;100.00;97872.75;4932223;29;20926;-72
2023/05/02 09:23:37;;;;;;;44.63;32.57;;;14.60;99.90;;;13.81;100.00;97867.91;4929788;29;20501;-72
2023/05/02 09:26:13;;;;;;;48.00;34.60;;;14.40;99.90;;;13.83;100.00;97863.91;4933443;29;20450;-72
2023/05/02 09:28:42;;;;;;;51.97;35.58;;;14.50;99.90;;;13.76;100.00;97868.66;4933987;29;20440;-72
2023/05/02 09:31:13;;;;;;;44.58;32.10;;;14.60;99.90;;;13.97;100.00;97868.78;4934584;29;20443;-72
2023/05/02 09:33:40;;;;;;;40.50;28.75;;;14.60;99.90;;;14.15;100.00;97854.97;4933712;29;20455;-72
2023/05/02 09:36:09;;;;;;;35.33;27.10;;;14.80;99.90;;;14.45;100.00;97870.25;4930914;29;20954;-72
2023/05/02 09:38:37;;;;;;;30.58;22.25;;;15.10;99.90;;;14.88;100.00;97866.31;4933835;29;20415;-72
2023/05/02 09:41:03;;;;;;;33.40;25.00;;;15.40;99.90;;;15.38;100.00;97878.81;4933107;29;20456;-72
2023/05/02 09:43:31;;;;;;;35.35;26.27;;;15.90;99.90;;;15.65;100.00;97875.81;4914366;29;20505;-72
2023/05/02 09:45:58;;;;;;;41.42;29.75;;;16.30;99.90;;;15.75;100.00;97871.28;4914717;29;20413;-72
2023/05/02 09:48:26;;;;;;;38.75;27.67;;;16.30;99.90;;;15.77;100.00;97874.47;4913950;29;20768;-72
2023/05/02 09:50:53;;;;;;;37.08;26.80;;;16.40;99.90;;;15.77;100.00;97879.00;4913288;29;20418;-73
2023/05/02 09:53:21;;;;;;;33.55;25.48;;;16.40;99.90;;;15.70;100.00;97871.28;4914642;29;20422;-73
2023/05/02 09:55:47;;;;;;;38.15;28.40;;;16.30;99.90;;;15.58;100.00;97868.09;4914424;29;20499;-73
2023/05/02 09:58:23;;;;;;;36.00;26.35;;;16.30;99.90;;;15.70;100.00;97881.16;4914791;29;20409;-73
2023/05/02 10:00:50;;;;;;;37.53;28.10;;;16.30;99.90;;;15.61;100.00;97878.25;4914574;29;20911;-72
2023/05/02 10:03:17;;;;;;;40.67;30.13;;;16.20;99.90;;;15.40;100.00;97874.00;4914623;29;20408;-72
2023/05/02 10:05:45;;;;;;;40.75;30.83;;;16.10;99.90;;;15.50;100.00;97869.44;4914469;29;20409;-73
2023/05/02 10:08:12;;;;;;;35.55;27.00;;;16.10;99.90;;;15.52;100.00;97871.84;4914503;29;20818;-73